Time;durP1;ratioP1;P1;durP2;ratioP2;P2;SDS_P1;SDS_P2;PMS_P1;PMS_P2;Temp;Humidity;BMP_temperature;BMP_pressure;BME280_temperature;BME280_humidity;BME280_pressure;Samples;Min_cycle;Max_cycle;Signal;HPM_P1;HPM_P2
2024/04/05 00:02:05;;;;;;;3.88;2.05;;;;;;;11.92;98.29;100077.09;6322759;28;20052;-67
2024/04/05 00:05:12;;;;;;;2.60;2.00;;;;;;;11.92;97.54;100071.88;6322654;28;20052;-75
2024/04/05 00:08:13;;;;;;;4.45;2.05;;;;;;;11.85;98.59;100075.81;6322572;28;20159;-68
2024/04/05 00:11:14;;;;;;;3.20;2.15;;;;;;;11.79;99.39;100081.44;6322400;28;20048;-67
2024/04/05 00:14:14;;;;;;;3.42;2.10;;;;;;;11.83;99.57;100088.16;6322340;28;20043;-67
2024/04/05 00:17:15;;;;;;;2.88;2.08;;;;;;;11.87;98.38;100087.00;6323192;28;20044;-67
2024/04/05 00:20:17;;;;;;;3.33;1.83;;;;;;;11.92;98.30;100087.56;6322205;28;20055;-75
2024/04/05 00:23:17;;;;;;;5.28;2.40;;;;;;;11.97;97.74;100082.88;6322394;28;20054;-67
2024/04/05 00:26:18;;;;;;;2.47;1.73;;;;;;;11.90;97.71;100081.59;6322049;28;20044;-75
2024/04/05 00:29:19;;;;;;;3.85;2.08;;;;;;;11.91;97.95;100087.69;6323555;28;20845;-67
2024/04/05 00:32:21;;;;;;;4.68;2.28;;;;;;;11.82;98.50;100083.84;6321960;28;20125;-67
2024/04/05 00:35:22;;;;;;;2.65;2.05;;;;;;;11.77;99.63;100084.16;6322129;28;20052;-67
2024/04/05 00:38:24;;;;;;;10.00;2.60;;;;;;;11.82;99.76;100094.31;6321393;28;20124;-67
2024/04/05 00:41:25;;;;;;;2.78;2.08;;;;;;;11.77;99.54;100096.41;6322038;28;20086;-67
2024/04/05 00:44:25;;;;;;;5.93;2.38;;;;;;;11.72;99.98;100106.34;6321664;28;20074;-75
2024/04/05 00:47:26;;;;;;;4.85;2.60;;;;;;;11.68;100.00;100100.47;6323107;28;20090;-67
2024/04/05 00:50:30;;;;;;;3.30;2.17;;;;;;;11.75;100.00;100103.50;6322899;28;20052;-75
2024/04/05 00:53:32;;;;;;;3.25;2.22;;;;;;;11.72;100.00;100107.16;6321646;28;20135;-75
2024/04/05 00:56:33;;;;;;;4.20;2.47;;;;;;;11.69;100.00;100112.56;6321438;28;20052;-71
2024/04/05 00:59:35;;;;;;;4.95;2.40;;;;;;;11.79;100.00;100113.66;6322790;28;20461;-76
2024/04/05 01:02:37;;;;;;;5.53;2.28;;;;;;;11.80;100.00;100107.50;6322661;28;20182;-76
2024/04/05 01:05:39;;;;;;;;;;;;;;;11.82;100.00;100115.22;6321440;28;20052;-76
2024/04/05 01:08:39;;;;;;;7.78;2.38;;;;;;;11.84;100.00;100108.97;6321149;28;19959;-76
2024/04/05 01:11:40;;;;;;;3.33;2.10;;;;;;;11.83;100.00;100093.38;6320382;28;20080;-76
2024/04/05 01:14:41;;;;;;;11.18;2.78;;;;;;;11.87;100.00;100098.31;6320229;28;20097;-67
2024/04/05 01:17:42;;;;;;;9.05;2.63;;;;;;;11.93;100.00;100107.56;6322038;28;20043;-68
2024/04/05 01:20:43;;;;;;;4.65;2.63;;;;;;;11.94;100.00;100104.00;6322123;28;20055;-67
2024/04/05 01:23:44;;;;;;;4.25;2.40;;;;;;;11.97;100.00;100111.66;6320823;28;20059;-76
2024/04/05 01:26:45;;;;;;;4.90;2.47;;;;;;;12.01;100.00;100122.75;6320494;28;20039;-67
2024/04/05 01:29:48;;;;;;;6.63;2.45;;;;;;;11.86;100.00;100156.78;6320565;28;20101;-75
2024/04/05 01:32:53;;;;;;;5.65;2.65;;;;;;;11.39;100.00;100240.78;6320480;28;20415;-67
2024/04/05 01:35:54;;;;;;;9.10;2.85;;;;;;;11.47;100.00;100273.34;6321456;28;20072;-69
2024/04/05 01:38:55;;;;;;;5.72;2.35;;;;;;;11.39;100.00;100288.66;6321797;28;20056;-68
2024/04/05 01:41:55;;;;;;;5.38;2.40;;;;;;;11.28;100.00;100278.00;6321969;28;20054;-77
2024/04/05 01:44:56;;;;;;;3.95;1.88;;;;;;;11.40;100.00;100292.09;6320448;28;20054;-68
2024/04/05 01:47:57;;;;;;;4.40;2.40;;;;;;;11.34;100.00;100289.84;6322456;28;20078;-77
2024/04/05 01:51:00;;;;;;;7.25;2.15;;;;;;;11.43;100.00;100297.16;6320659;28;20056;-77
2024/04/05 01:54:01;;;;;;;4.97;1.88;;;;;;;11.46;100.00;100291.72;6320421;28;20059;-78
2024/04/05 01:57:03;;;;;;;3.33;1.90;;;;;;;11.48;100.00;100300.31;6320104;28;20523;-77
2024/04/05 02:00:08;;;;;;;3.50;1.90;;;;;;;11.52;100.00;100299.19;6321861;28;20056;-78
2024/04/05 02:03:09;;;;;;;2.85;1.80;;;;;;;11.58;100.00;100303.22;6320733;28;20143;-78
2024/04/05 02:06:13;;;;;;;3.50;1.65;;;;;;;11.24;100.00;100313.06;6321629;28;20048;-77
2024/04/05 02:09:14;;;;;;;2.63;1.38;;;;;;;11.36;100.00;100314.94;6320850;28;20050;-77
2024/04/05 02:12:16;;;;;;;3.00;1.80;;;;;;;11.29;100.00;100321.50;6321108;28;20047;-77
2024/04/05 02:15:16;;;;;;;2.00;1.50;;;;;;;11.50;100.00;100324.56;6321814;28;20499;-77
2024/04/05 02:18:17;;;;;;;5.88;1.83;;;;;;;11.69;100.00;100334.75;6320462;28;20048;-68
2024/04/05 02:21:21;;;;;;;4.35;1.52;;;;;;;11.83;100.00;100336.53;6321444;28;20524;-68
2024/04/05 02:24:22;;;;;;;3.78;1.83;;;;;;;11.98;100.00;100329.53;6319906;28;20488;-68
2024/04/05 02:27:25;;;;;;;2.60;1.27;;;;;;;12.05;100.00;100325.59;6320801;28;20074;-69
2024/04/05 02:30:26;;;;;;;1.55;1.13;;;;;;;12.04;100.00;100323.91;6319759;28;20135;-69
2024/04/05 02:33:29;;;;;;;1.67;1.25;;;;;;;12.17;100.00;100309.13;6320123;28;20059;-69
2024/04/05 02:36:30;;;;;;;1.65;1.30;;;;;;;12.30;100.00;100311.81;6321357;28;20048;-77
2024/04/05 02:39:31;;;;;;;4.00;1.77;;;;;;;12.41;100.00;100300.63;6320120;28;20139;-70
2024/04/05 02:42:34;;;;;;;3.65;1.63;;;;;;;12.50;100.00;100303.50;6319535;28;20618;-69
2024/04/05 02:45:35;;;;;;;5.50;1.83;;;;;;;12.50;100.00;100302.69;6321291;28;20135;-78
2024/04/05 02:48:36;;;;;;;3.85;2.28;;;;;;;12.51;100.00;100301.72;6319886;28;20055;-78
2024/04/05 02:51:36;;;;;;;2.00;1.45;;;;;;;12.53;100.00;100299.00;6320058;28;20056;-77
2024/04/05 02:54:37;;;;;;;1.35;1.13;;;;;;;12.58;100.00;100271.59;6305817;28;20045;-78
2024/04/05 02:57:38;;;;;;;6.55;1.88;;;;;;;12.58;100.00;100262.91;6296355;28;20055;-68
2024/04/05 03:00:39;;;;;;;1.90;1.25;;;;;;;12.62;100.00;100262.59;6296774;28;20044;-69
2024/04/05 03:03:40;;;;;;;2.58;1.25;;;;;;;12.69;100.00;100263.88;6300418;28;20542;-69
2024/04/05 03:06:40;;;;;;;1.98;1.05;;;;;;;12.66;100.00;100261.47;6299046;28;20052;-68
2024/04/05 03:09:41;;;;;;;2.28;1.42;;;;;;;12.72;100.00;100259.38;6300218;28;20723;-68
2024/04/05 03:12:42;;;;;;;3.83;1.83;;;;;;;12.68;100.00;100256.09;6299034;28;20053;-78
2024/04/05 03:15:43;;;;;;;5.45;1.80;;;;;;;12.69;100.00;100263.03;6300119;28;20499;-68
2024/04/05 03:18:44;;;;;;;3.53;1.70;;;;;;;12.75;100.00;100259.19;6298687;28;20056;-78
2024/04/05 03:21:44;;;;;;;1.40;1.10;;;;;;;12.70;100.00;100252.47;6299532;28;20064;-78
2024/04/05 03:24:45;;;;;;;1.45;1.30;;;;;;;12.63;100.00;100242.50;6299748;28;20057;-77
2024/04/05 03:27:47;;;;;;;1.30;1.20;;;;;;;12.52;100.00;100237.13;6299170;28;20048;-77
2024/04/05 03:30:48;;;;;;;3.33;1.80;;;;;;;12.44;100.00;100246.34;6299418;28;20067;-77
2024/04/05 03:33:48;;;;;;;2.95;1.60;;;;;;;12.47;100.00;100211.25;6299625;28;20052;-77
2024/04/05 03:36:49;;;;;;;2.00;1.45;;;;;;;12.40;100.00;100239.63;6298016;28;20127;-69
2024/04/05 03:39:52;;;;;;;1.95;1.50;;;;;;;12.49;100.00;100244.22;6298803;28;20371;-69
2024/04/05 03:42:52;;;;;;;3.05;1.50;;;;;;;12.50;100.00;100240.69;6297662;28;20565;-68
2024/04/05 03:45:53;;;;;;;3.05;1.70;;;;;;;12.49;100.00;100225.09;6297912;28;20048;-68
2024/04/05 03:48:54;;;;;;;2.40;1.58;;;;;;;12.49;100.00;100240.78;6299309;28;20135;-68
2024/04/05 03:51:55;;;;;;;3.13;1.60;;;;;;;12.46;100.00;100246.25;6298214;28;20052;-78
2024/04/05 03:54:56;;;;;;;1.98;1.50;;;;;;;12.44;100.00;100248.13;6298237;28;20049;-68
2024/04/05 03:57:56;;;;;;;4.30;2.28;;;;;;;12.44;100.00;100251.56;6299119;28;20488;-68
2024/04/05 04:00:57;;;;;;;3.63;1.92;;;;;;;12.40;100.00;100252.72;6298233;28;20737;-77
2024/04/05 04:03:58;;;;;;;2.00;1.80;;;;;;;12.28;100.00;100254.34;6298116;28;20135;-78
2024/04/05 04:06:59;;;;;;;4.60;2.03;;;;;;;12.25;100.00;100254.56;6298329;28;20480;-68
2024/04/05 04:09:59;;;;;;;7.22;2.30;;;;;;;12.21;100.00;100254.81;6298934;28;20053;-68
2024/04/05 04:13:00;;;;;;;2.13;1.65;;;;;;;12.16;100.00;100260.34;6298084;28;20140;-68
2024/04/05 04:16:01;;;;;;;5.85;2.47;;;;;;;12.17;100.00;100261.19;6297734;28;20071;-68
2024/04/05 04:19:02;;;;;;;2.88;2.25;;;;;;;12.10;100.00;100263.38;6297056;28;20095;-68
2024/04/05 04:22:03;;;;;;;3.95;2.58;;;;;;;12.12;100.00;100265.91;6296680;28;20044;-68
2024/04/05 04:25:06;;;;;;;7.88;2.42;;;;;;;12.15;100.00;100277.00;6297679;28;20182;-78
2024/04/05 04:28:10;;;;;;;4.50;2.45;;;;;;;12.09;100.00;100290.47;6298677;28;20094;-69
2024/04/05 04:31:22;;;;;;;4.10;2.42;;;;;;;12.13;100.00;100291.97;6314184;28;20053;-77
2024/04/05 04:34:22;;;;;;;2.50;2.30;;;;;;;12.14;100.00;100296.25;6297289;28;20114;-68
2024/04/05 04:37:23;;;;;;;3.42;2.22;;;;;;;12.14;100.00;100300.63;6298466;28;20797;-68
2024/04/05 04:40:24;;;;;;;4.03;2.35;;;;;;;12.09;100.00;100299.16;6296528;28;20412;-68
2024/04/05 04:43:27;;;;;;;5.50;2.75;;;;;;;12.07;100.00;100298.41;6296328;28;20118;-77
2024/04/05 04:46:29;;;;;;;3.85;2.38;;;;;;;12.05;100.00;100299.44;6297861;28;20044;-68
2024/04/05 04:49:30;;;;;;;4.00;2.65;;;;;;;12.17;100.00;100303.03;6296407;28;20064;-77
2024/04/05 04:52:31;;;;;;;7.75;2.50;;;;;;;12.15;100.00;100304.91;6313707;28;20045;-77
2024/04/05 04:55:35;;;;;;;4.53;2.17;;;;;;;12.17;100.00;100303.91;6308718;28;20056;-78
2024/04/05 04:58:36;;;;;;;4.70;2.70;;;;;;;12.19;100.00;100298.56;6321463;28;20051;-78
2024/04/05 05:01:40;;;;;;;6.00;3.13;;;;;;;12.19;100.00;100303.78;6321991;28;20048;-78
2024/04/05 05:04:42;;;;;;;3.53;2.42;;;;;;;12.14;100.00;100317.16;6315150;28;20075;-77
2024/04/05 05:07:43;;;;;;;4.97;2.60;;;;;;;12.27;100.00;100319.84;6321403;28;20136;-69
2024/04/05 05:10:45;;;;;;;5.15;2.90;;;;;;;12.36;100.00;100324.50;6321195;28;20063;-68
2024/04/05 05:13:45;;;;;;;5.97;2.65;;;;;;;12.28;100.00;100311.91;6321243;28;20044;-68
2024/04/05 05:16:46;;;;;;;5.22;2.80;;;;;;;12.22;100.00;100312.28;6322513;28;20051;-69
2024/04/05 05:19:47;;;;;;;5.25;2.40;;;;;;;12.14;100.00;100308.47;6322438;28;20086;-77
2024/04/05 05:22:53;;;;;;;4.55;2.67;;;;;;;12.28;100.00;100317.13;6316731;28;20052;-68
2024/04/05 05:25:57;;;;;;;4.93;2.50;;;;;;;12.40;100.00;100310.28;6310848;28;20067;-78
2024/04/05 05:28:58;;;;;;;3.90;2.83;;;;;;;12.47;100.00;100311.53;6313813;28;20052;-77
2024/04/05 05:31:59;;;;;;;4.57;2.70;;;;;;;12.55;100.00;100307.59;6305680;28;20055;-68
2024/04/05 05:34:59;;;;;;;3.95;2.50;;;;;;;12.49;100.00;100316.69;6312399;28;20078;-68
2024/04/05 05:38:04;;;;;;;6.05;2.83;;;;;;;12.39;100.00;100318.22;6311363;28;20420;-78
2024/04/05 05:41:04;;;;;;;8.10;2.97;;;;;;;12.54;100.00;100322.47;6312078;28;20083;-68
2024/04/05 05:44:05;;;;;;;4.72;3.00;;;;;;;12.65;100.00;100314.75;6311091;28;20105;-67
2024/04/05 05:47:06;;;;;;;7.28;3.50;;;;;;;12.86;100.00;100316.91;6306117;28;20048;-78
2024/04/05 05:50:09;;;;;;;6.57;3.42;;;;;;;13.06;100.00;100332.13;6307875;28;20119;-68
2024/04/05 05:53:10;;;;;;;5.13;2.80;;;;;;;13.20;100.00;100336.44;6311307;28;20064;-68
2024/04/05 05:56:10;;;;;;;4.97;3.30;;;;;;;13.26;100.00;100337.78;6318522;28;20048;-69
2024/04/05 05:59:11;;;;;;;9.05;3.13;;;;;;;13.19;100.00;100347.84;6303096;28;20052;-68
2024/04/05 06:02:12;;;;;;;7.32;3.50;;;;;;;13.36;100.00;100345.91;6314179;28;20051;-68
2024/04/05 06:05:13;;;;;;;4.43;2.80;;;;;;;13.37;100.00;100335.31;6310358;28;20056;-68
2024/04/05 06:08:14;;;;;;;5.07;2.47;;;;;;;13.45;100.00;100332.19;6319115;28;20055;-68
2024/04/05 06:11:15;;;;;;;5.97;2.85;;;;;;;13.66;100.00;100335.09;6315868;28;20456;-68
2024/04/05 06:14:15;;;;;;;3.10;2.50;;;;;;;13.76;100.00;100343.19;6318761;28;20445;-67
2024/04/05 06:17:16;;;;;;;2.85;2.30;;;;;;;13.81;100.00;100341.88;6311829;28;20556;-77
2024/04/05 06:20:17;;;;;;;5.32;2.88;;;;;;;13.98;100.00;100347.75;6294179;28;20052;-77
2024/04/05 06:23:18;;;;;;;3.67;2.60;;;;;;;13.94;100.00;100347.13;6301116;28;20131;-77
2024/04/05 06:26:19;;;;;;;5.18;2.85;;;;;;;13.88;100.00;100345.78;6306656;28;20134;-77
2024/04/05 06:29:20;;;;;;;4.50;2.60;;;;;;;13.88;100.00;100352.81;6310905;28;20087;-77
2024/04/05 06:32:21;;;;;;;2.95;2.42;;;;;;;14.00;100.00;100361.59;6294042;28;20049;-77
2024/04/05 06:35:22;;;;;;;3.43;2.27;;;;;;;14.08;100.00;100364.50;6297235;28;20063;-68
2024/04/05 06:38:24;;;;;;;4.47;2.53;;;;;;;14.13;100.00;100367.66;6303616;28;20270;-68
2024/04/05 06:41:26;;;;;;;3.50;2.25;;;;;;;14.47;100.00;100373.09;6322111;28;20052;-77
2024/04/05 06:44:31;;;;;;;5.80;2.10;;;;;;;14.51;100.00;100367.50;6324897;28;20105;-68
2024/04/05 06:47:32;;;;;;;2.92;2.15;;;;;;;14.63;100.00;100375.50;6320057;28;20050;-68
2024/04/05 06:50:33;;;;;;;5.82;2.35;;;;;;;14.67;100.00;100371.69;6303575;28;20074;-68
2024/04/05 06:53:34;;;;;;;4.90;2.67;;;;;;;14.99;100.00;100371.09;6299514;28;20057;-68
2024/04/05 06:56:34;;;;;;;5.25;2.63;;;;;;;14.90;100.00;100377.88;6299619;28;20517;-68
2024/04/05 06:59:36;;;;;;;6.65;3.10;;;;;;;15.09;100.00;100382.59;6310100;28;20515;-77
2024/04/05 07:02:36;;;;;;;7.47;4.63;;;;;;;15.40;100.00;100389.03;6324767;28;20059;-67
2024/04/05 07:05:38;;;;;;;8.82;5.00;;;;;;;15.72;100.00;100391.00;6323500;28;20052;-77
2024/04/05 07:08:39;;;;;;;10.38;6.28;;;;;;;15.62;100.00;100392.66;6308885;28;20056;-77
2024/04/05 07:11:44;;;;;;;11.27;5.43;;;;;;;15.58;100.00;100383.31;6324083;28;20515;-77
2024/04/05 07:14:45;;;;;;;8.18;4.93;;;;;;;15.70;100.00;100391.09;6308894;28;20140;-68
2024/04/05 07:17:49;;;;;;;4.25;2.40;;;;;;;15.88;100.00;100388.88;6299157;28;20055;-77
2024/04/05 07:20:51;;;;;;;1.65;1.40;;;;;;;15.50;100.00;100389.16;6304678;28;20058;-69
2024/04/05 07:23:54;;;;;;;1.63;1.50;;;;;;;15.50;100.00;100397.03;6311043;28;20075;-68
2024/04/05 07:26:55;;;;;;;2.85;1.40;;;;;;;15.65;100.00;100406.41;6323919;28;20426;-68
2024/04/05 07:29:56;;;;;;;1.70;1.60;;;;;;;15.83;100.00;100413.84;6324069;28;20081;-69
2024/04/05 07:32:57;;;;;;;3.27;2.10;;;;;;;15.94;100.00;100420.91;6320611;28;20055;-69
2024/04/05 07:35:57;;;;;;;2.28;1.83;;;;;;;16.00;100.00;100412.53;6299408;28;20086;-78
2024/04/05 07:38:59;;;;;;;3.10;1.83;;;;;;;15.77;100.00;100417.78;6303621;28;20044;-78
2024/04/05 07:41:59;;;;;;;1.58;1.38;;;;;;;15.80;100.00;100414.94;6311076;28;20078;-77
2024/04/05 07:45:03;;;;;;;2.00;1.65;;;;;;;16.04;100.00;100412.19;6316888;28;20051;-78
2024/04/05 07:48:04;;;;;;;2.00;1.40;;;;;;;16.50;100.00;100408.53;6320462;28;20484;-77
2024/04/05 07:51:04;;;;;;;1.85;1.52;;;;;;;16.54;100.00;100410.94;6304862;28;20088;-69
2024/04/05 07:54:05;;;;;;;3.95;1.98;;;;;;;16.68;100.00;100403.59;6322301;28;20530;-68
2024/04/05 07:57:08;;;;;;;1.88;1.40;;;;;;;16.79;100.00;100400.09;6322195;28;20036;-69
2024/04/05 08:00:14;;;;;;;2.72;1.40;;;;;;;16.87;100.00;100410.88;6336588;28;20078;-78
2024/04/05 08:03:15;;;;;;;2.35;1.35;;;;;;;17.01;100.00;100399.19;6300627;28;20044;-68
2024/04/05 08:06:16;;;;;;;2.83;1.45;;;;;;;17.20;100.00;100393.22;6319990;28;20098;-77
2024/04/05 08:09:16;;;;;;;4.15;1.60;;;;;;;17.19;100.00;100394.19;6323003;28;20048;-68
2024/04/05 08:12:17;;;;;;;2.17;1.15;;;;;;;17.13;100.00;100392.06;6321266;28;20132;-69
2024/04/05 08:15:18;;;;;;;1.67;1.23;;;;;;;17.18;100.00;100389.88;6321394;28;20083;-68
2024/04/05 08:18:21;;;;;;;2.22;1.40;;;;;;;17.35;100.00;100379.72;6321424;28;20519;-68
2024/04/05 08:21:22;;;;;;;2.55;1.48;;;;;;;17.42;99.84;100375.59;6322817;28;20074;-68
2024/04/05 08:24:23;;;;;;;2.40;1.30;;;;;;;17.36;100.00;100387.50;6322545;28;20575;-68
2024/04/05 08:27:23;;;;;;;3.42;1.70;;;;;;;17.52;100.00;100392.31;6321289;28;20048;-77
2024/04/05 08:30:26;;;;;;;6.50;1.33;;;;;;;17.86;96.15;100386.84;6321139;28;20052;-68
2024/04/05 08:33:28;;;;;;;1.50;1.30;;;;;;;17.66;94.60;100380.59;6322133;28;20048;-69
2024/04/05 08:36:29;;;;;;;5.50;1.40;;;;;;;17.71;95.06;100389.78;6322162;28;20040;-68
2024/04/05 08:39:30;;;;;;;6.82;1.80;;;;;;;18.14;96.92;100372.06;6320891;28;20311;-68
2024/04/05 08:42:34;;;;;;;3.60;1.67;;;;;;;18.27;94.72;100369.19;6320888;28;20055;-68
2024/04/05 08:45:35;;;;;;;2.00;1.40;;;;;;;18.47;92.65;100362.97;6320845;28;20048;-67
2024/04/05 08:48:36;;;;;;;2.45;1.58;;;;;;;18.83;91.91;100365.09;6320985;28;20101;-77
2024/04/05 08:51:40;;;;;;;2.25;1.38;;;;;;;18.68;88.13;100359.38;6320607;28;20048;-77
2024/04/05 08:54:41;;;;;;;1.75;1.30;;;;;;;18.73;87.60;100354.47;6320686;28;20156;-76
2024/04/05 08:57:43;;;;;;;3.08;1.10;;;;;;;18.91;88.02;100347.56;6320601;28;20055;-68
2024/04/05 09:00:44;;;;;;;1.00;0.93;;;;;;;18.71;86.73;100351.16;6321533;28;20082;-68
2024/04/05 09:03:50;;;;;;;1.95;1.10;;;;;;;18.99;84.22;100356.59;6320454;28;20062;-67
2024/04/05 09:06:54;;;;;;;3.45;1.67;;;;;;;19.27;84.62;100354.88;6321496;28;20048;-67
2024/04/05 09:10:09;;;;;;;1.80;1.10;;;;;;;19.36;81.63;100343.44;6320281;28;20192;-68
2024/04/05 09:13:12;;;;;;;2.72;0.88;;;;;;;19.95;80.10;100337.94;6321310;28;20389;-67
2024/04/05 09:16:21;;;;;;;1.35;0.90;;;;;;;20.03;77.54;100332.75;6320275;28;20044;-67
2024/04/05 09:19:25;;;;;;;1.05;0.70;;;;;;;19.70;74.76;100334.97;6319981;28;20051;-67
2024/04/05 09:22:26;;;;;;;0.70;0.70;;;;;;;19.82;73.86;100328.53;6321341;28;20100;-68
2024/04/05 09:25:28;;;;;;;1.63;0.93;;;;;;;19.86;73.51;100329.09;6319876;28;20532;-77
2024/04/05 09:28:29;;;;;;;;;;;;;;;19.87;75.15;100333.38;6321583;28;20044;-69
2024/04/05 09:31:30;;;;;;;0.63;0.60;;;;;;;19.29;76.49;100327.31;6319662;28;19973;-76
2024/04/05 09:34:35;;;;;;;1.95;0.70;;;;;;;18.95;75.84;100323.50;6319960;28;20048;-76
2024/04/05 09:37:38;;;;;;;1.15;0.80;;;;;;;19.05;78.20;100337.53;6319695;28;20048;-68
2024/04/05 09:40:42;;;;;;;1.33;0.70;;;;;;;19.05;79.46;100338.38;6320874;28;20134;-69
2024/04/05 09:43:44;;;;;;;0.90;0.73;;;;;;;18.93;80.57;100335.03;6320602;28;20056;-78
2024/04/05 09:46:44;;;;;;;1.67;0.70;;;;;;;19.10;76.00;100338.75;6320067;28;20380;-75
2024/04/05 09:49:46;;;;;;;0.47;0.43;;;;;;;19.38;73.24;100336.22;6314257;28;20407;-76
2024/04/05 09:52:52;;;;;;;1.65;0.50;;;;;;;19.44;69.95;100337.44;6312456;28;20051;-75
2024/04/05 09:55:57;;;;;;;7.78;0.50;;;;;;;20.22;69.65;100335.31;6315339;28;20087;-76
2024/04/05 09:59:01;;;;;;;1.48;0.50;;;;;;;20.09;67.16;100338.28;6307611;28;20043;-68
2024/04/05 10:02:02;;;;;;;2.47;0.40;;;;;;;20.41;64.98;100331.69;6304818;28;20052;-67
2024/04/05 10:05:07;;;;;;;0.53;0.50;;;;;;;20.88;63.47;100333.28;6316647;28;20048;-67
2024/04/05 10:08:10;;;;;;;1.02;0.47;;;;;;;20.53;64.06;100337.59;6297986;28;20083;-67
2024/04/05 10:11:15;;;;;;;1.52;0.50;;;;;;;20.98;66.56;100342.00;6319570;28;20055;-68
2024/04/05 10:14:23;;;;;;;0.68;0.50;;;;;;;20.95;62.34;100329.03;6313694;28;20084;-78
2024/04/05 10:17:28;;;;;;;3.85;0.50;;;;;;;21.57;61.61;100331.59;6294311;28;20519;-78
2024/04/05 10:20:33;;;;;;;4.95;0.60;;;;;;;20.89;63.94;100332.28;6294053;28;20048;-77
2024/04/05 10:23:37;;;;;;;1.30;0.60;;;;;;;20.87;65.23;100334.25;6310751;28;20109;-69
2024/04/05 10:26:50;;;;;;;0.95;0.50;;;;;;;20.79;64.39;100328.91;6320369;28;20105;-68
2024/04/05 10:30:06;;;;;;;0.57;0.32;;;;;;;20.70;60.25;100334.13;6317123;28;20137;-69
2024/04/05 10:33:09;;;;;;;1.25;0.50;;;;;;;21.16;62.40;100336.63;6311914;28;20076;-68
2024/04/05 10:36:13;;;;;;;1.95;0.52;;;;;;;21.77;61.04;100323.41;6305472;28;20048;-76
2024/04/05 10:39:17;;;;;;;1.55;0.43;;;;;;;21.37;59.09;100328.31;6303629;28;20514;-77
2024/04/05 10:42:26;;;;;;;0.68;0.40;;;;;;;21.61;59.43;100329.47;6307231;28;20083;-68
2024/04/05 10:45:28;;;;;;;1.15;0.40;;;;;;;21.92;57.05;100324.44;6314514;28;20096;-79
2024/04/05 10:48:30;;;;;;;0.77;0.32;;;;;;;22.27;58.09;100325.25;6319839;28;20073;-78
2024/04/05 10:51:32;;;;;;;3.80;0.50;;;;;;;22.00;57.51;100316.50;6294001;28;20500;-68
2024/04/05 10:54:33;;;;;;;1.35;0.60;;;;;;;22.10;56.83;100321.69;6307577;28;20393;-77
2024/04/05 10:57:34;;;;;;;1.63;0.37;;;;;;;22.37;55.59;100320.63;6302965;28;20102;-77
2024/04/05 11:00:35;;;;;;;1.77;0.60;;;;;;;22.02;54.78;100322.50;6318332;28;20486;-68
2024/04/05 11:03:36;;;;;;;0.80;0.37;;;;;;;22.63;54.84;100320.47;6298720;28;20048;-68
2024/04/05 11:06:38;;;;;;;0.57;0.50;;;;;;;21.92;53.50;100314.66;6318013;28;20044;-77
2024/04/05 11:09:42;;;;;;;0.47;0.43;;;;;;;22.30;55.08;100323.09;6317802;28;20089;-78
2024/04/05 11:12:48;;;;;;;1.75;0.88;;;;;;;22.59;54.02;100324.47;6319171;28;20070;-69
2024/04/05 11:16:00;;;;;;;2.67;0.50;;;;;;;22.88;54.25;100323.97;6317890;28;20048;-78
2024/04/05 11:19:02;;;;;;;0.20;0.20;;;;;;;22.84;53.08;100317.31;6300256;28;20408;-77
2024/04/05 11:22:03;;;;;;;;;;;;;;;22.94;52.51;100325.13;6316628;28;20055;-77
2024/04/05 11:25:06;;;;;;;0.57;0.43;;;;;;;22.14;51.86;100325.69;6319143;28;20006;-68
2024/04/05 11:28:18;;;;;;;0.82;0.50;;;;;;;21.78;53.96;100309.94;6308443;28;20052;-69
2024/04/05 11:31:19;;;;;;;1.30;0.40;;;;;;;22.29;51.65;100326.75;6311019;28;20170;-78
2024/04/05 11:34:20;;;;;;;1.17;0.47;;;;;;;21.89;51.38;100324.78;6313461;28;20056;-78
2024/04/05 11:37:21;;;;;;;0.40;0.40;;;;;;;21.96;51.89;100331.09;6320228;28;20052;-77
2024/04/05 11:40:21;;;;;;;1.07;0.50;;;;;;;21.94;50.42;100325.94;6311933;28;20397;-77
2024/04/05 11:43:23;;;;;;;2.17;0.73;;;;;;;21.28;53.26;100324.78;6321741;28;20064;-77
2024/04/05 11:46:25;;;;;;;0.93;0.50;;;;;;;21.44;52.67;100324.06;6322320;28;20090;-77
2024/04/05 11:49:26;;;;;;;1.17;0.40;;;;;;;22.02;51.48;100311.03;6324332;28;20056;-69
2024/04/05 11:52:27;;;;;;;1.27;0.40;;;;;;;22.46;50.21;100311.63;6324407;28;20088;-77
2024/04/05 11:55:28;;;;;;;1.13;0.45;;;;;;;22.24;49.58;100309.63;6324446;28;20056;-78
2024/04/05 11:58:31;;;;;;;2.13;0.33;;;;;;;22.47;49.14;100308.00;6323373;28;20654;-77
2024/04/05 12:01:32;;;;;;;5.53;0.75;;;;;;;22.87;49.82;100301.00;6324285;28;20048;-77
2024/04/05 12:04:33;;;;;;;4.93;0.57;;;;;;;22.18;47.86;100302.28;6324216;28;20185;-69
2024/04/05 12:07:37;;;;;;;1.02;0.55;;;;;;;22.30;48.46;100304.50;6322312;28;20135;-78
2024/04/05 12:10:39;;;;;;;3.58;0.40;;;;;;;22.27;48.04;100302.16;6322895;28;20135;-68
2024/04/05 12:13:42;;;;;;;1.98;0.85;;;;;;;22.09;47.13;100309.38;6308605;28;20048;-68
2024/04/05 12:16:42;;;;;;;0.85;0.47;;;;;;;22.36;48.78;100296.84;6307582;28;20052;-69
2024/04/05 12:19:47;;;;;;;0.93;0.40;;;;;;;22.90;49.37;100299.88;6322936;28;20052;-68
2024/04/05 12:22:48;;;;;;;2.50;0.40;;;;;;;22.84;46.90;100290.72;6322779;28;20067;-69
2024/04/05 12:25:58;;;;;;;0.73;0.37;;;;;;;23.00;45.66;100297.00;6322779;28;20083;-70
2024/04/05 12:28:59;;;;;;;3.58;0.52;;;;;;;23.65;48.34;100296.03;6323012;28;20052;-78
2024/04/05 12:31:59;;;;;;;1.13;0.50;;;;;;;23.23;45.43;100292.69;6321451;28;20109;-78
2024/04/05 12:35:01;;;;;;;0.87;0.43;;;;;;;22.86;47.06;100295.88;6321843;28;20193;-77
2024/04/05 12:38:02;;;;;;;0.52;0.32;;;;;;;23.53;46.47;100293.75;6321159;28;20461;-68
2024/04/05 12:41:03;;;;;;;1.13;0.30;;;;;;;23.73;46.46;100283.50;6321053;28;20056;-68
2024/04/05 12:44:04;;;;;;;0.93;0.40;;;;;;;23.93;45.39;100288.44;6321023;28;20350;-78
2024/04/05 12:47:05;;;;;;;0.30;0.30;;;;;;;23.42;45.04;100293.28;6322124;28;20051;-78
2024/04/05 12:50:07;;;;;;;0.60;0.40;;;;;;;23.19;44.31;100293.19;6320494;28;20098;-78
2024/04/05 12:53:08;;;;;;;0.65;0.32;;;;;;;22.87;44.40;100282.38;6306967;28;20448;-78
2024/04/05 12:56:09;;;;;;;1.02;0.52;;;;;;;23.29;44.60;100292.00;6308382;28;20055;-77
2024/04/05 12:59:10;;;;;;;1.13;0.40;;;;;;;23.19;44.03;100287.88;6322061;28;20093;-77
2024/04/05 13:02:10;;;;;;;1.13;0.30;;;;;;;23.58;43.46;100279.94;6320521;28;20048;-77
2024/04/05 13:05:12;;;;;;;3.50;0.40;;;;;;;23.22;41.23;100274.22;6320674;28;20085;-69
2024/04/05 13:08:15;;;;;;;1.37;0.47;;;;;;;23.50;43.19;100286.09;6321592;28;20075;-68
2024/04/05 13:11:20;;;;;;;0.98;0.45;;;;;;;23.60;44.31;100283.25;6321449;28;20322;-68
2024/04/05 13:14:24;;;;;;;2.47;0.40;;;;;;;23.75;43.35;100272.69;6321848;28;20078;-68
2024/04/05 13:17:25;;;;;;;1.88;0.47;;;;;;;22.67;42.46;100279.25;6320455;28;20050;-77
2024/04/05 13:20:26;;;;;;;0.53;0.30;;;;;;;23.33;43.93;100273.88;6305259;28;20048;-77
2024/04/05 13:23:27;;;;;;;1.58;0.60;;;;;;;23.48;43.58;100279.31;6296254;28;20084;-77
2024/04/05 13:26:32;;;;;;;2.03;0.50;;;;;;;22.34;43.41;100275.75;6296100;28;20484;-77
2024/04/05 13:29:33;;;;;;;1.63;0.55;;;;;;;22.50;43.98;100270.44;6296157;28;20056;-77
2024/04/05 13:32:37;;;;;;;0.63;0.40;;;;;;;22.63;43.15;100269.97;6296002;28;20044;-77
2024/04/05 13:35:38;;;;;;;2.85;0.60;;;;;;;21.85;42.33;100268.50;6294544;28;20055;-68
2024/04/05 13:38:39;;;;;;;0.73;0.20;;;;;;;22.13;45.07;100274.38;6294662;28;20044;-77
2024/04/05 13:41:40;;;;;;;1.13;1.00;;;;;;;22.54;44.00;100273.59;6294339;28;20051;-77
2024/04/05 13:44:41;;;;;;;0.40;0.22;;;;;;;22.32;44.68;100281.25;6316187;28;20408;-68
2024/04/05 13:47:42;;;;;;;1.43;1.10;;;;;;;22.18;46.09;100286.34;6320785;28;20154;-68
2024/04/05 13:50:43;;;;;;;0.50;0.40;;;;;;;21.86;45.11;100293.22;6306667;28;20051;-68
2024/04/05 13:53:44;;;;;;;0.47;0.40;;;;;;;21.51;45.77;100284.44;6301981;28;20048;-68
2024/04/05 13:56:47;;;;;;;3.77;0.50;;;;;;;21.44;47.19;100302.00;6300467;28;20066;-68
2024/04/05 13:59:48;;;;;;;1.55;0.30;;;;;;;21.46;46.36;100292.06;6311773;28;20055;-67
2024/04/05 14:02:49;;;;;;;1.17;0.53;;;;;;;21.54;47.44;100289.47;6307359;28;20456;-68